Time;durP1;ratioP1;P1;durP2;ratioP2;P2;SDS_P1;SDS_P2;PMS_P1;PMS_P2;Temp;Humidity;BMP_temperature;BMP_pressure;BME280_temperature;BME280_humidity;BME280_pressure;Samples;Min_cycle;Max_cycle;Signal;HPM_P1;HPM_P2
2022/01/24 00:00:15;;;;;;;1.83;1.63;;;;;;;-4.46;87.76;92652.06;5039085;28;20478;-72
2022/01/24 00:02:43;;;;;;;3.47;2.10;;;;;;;-4.42;86.69;92652.91;5039242;28;20202;-72
2022/01/24 00:05:12;;;;;;;1.97;1.87;;;;;;;-4.41;85.95;92643.09;5038340;28;20497;-72
2022/01/24 00:07:39;;;;;;;1.07;1.07;;;;;;;-4.41;86.02;92645.56;5038985;28;20470;-72
2022/01/24 00:10:12;;;;;;;1.47;1.47;;;;;;;-4.47;87.24;92634.78;5039451;28;20492;-72
2022/01/24 00:12:48;;;;;;;0.90;0.90;;;;;;;-4.41;86.96;92645.56;5039410;28;20547;-72
2022/01/24 00:15:23;;;;;;;0.77;0.77;;;;;;;-4.57;88.87;92643.69;5038696;28;20255;-72
2022/01/24 00:18:02;;;;;;;1.47;1.47;;;;;;;-4.58;89.00;92656.00;5038231;28;20213;-72
2022/01/24 00:28:42;;;;;;;1.07;1.07;;;;;;;-4.91;90.93;92654.72;5037613;28;20580;-72
2022/01/24 00:31:11;;;;;;;5.10;1.20;;;;;;;-4.94;91.65;92658.75;5038065;28;20559;-72
2022/01/24 00:33:38;;;;;;;4.23;2.00;;;;;;;-4.88;91.45;92663.75;5037672;28;20517;-72
2022/01/24 00:36:06;;;;;;;1.53;1.47;;;;;;;-4.94;91.79;92653.81;5038410;28;20650;-72
2022/01/24 00:38:33;;;;;;;0.83;0.83;;;;;;;-4.78;90.81;92661.44;5039112;28;20614;-72
2022/01/24 00:41:00;;;;;;;0.80;0.80;;;;;;;-4.88;91.50;92659.66;5038225;28;20589;-72
2022/01/24 00:43:34;;;;;;;0.60;0.60;;;;;;;-4.82;91.96;92651.53;5038012;28;20602;-72
2022/01/24 00:46:07;;;;;;;0.70;0.70;;;;;;;-4.86;91.62;92658.06;5038283;28;20575;-72
2022/01/24 00:49:17;;;;;;;1.10;1.10;;;;;;;-4.75;91.09;92663.97;5038264;28;20659;-72
2022/01/24 00:54:43;;;;;;;0.70;0.70;;;;;;;-4.67;90.32;92667.34;5038397;28;20577;-73
2022/01/24 00:57:12;;;;;;;0.60;0.60;;;;;;;-4.71;90.84;92670.59;5037913;28;20454;-72
2022/01/24 00:59:39;;;;;;;1.27;1.27;;;;;;;-4.68;90.95;92662.44;5038079;28;20567;-73
2022/01/24 01:02:08;;;;;;;1.43;1.27;;;;;;;-4.64;90.94;92674.81;5038068;28;20539;-72
2022/01/24 01:04:48;;;;;;;1.20;1.20;;;;;;;-4.47;88.25;92693.94;5038018;28;20754;-72
2022/01/24 01:07:24;;;;;;;1.50;1.50;;;;;;;-4.55;86.69;92695.44;5037664;28;20529;-72
2022/01/24 01:18:15;;;;;;;0.90;0.90;;;;;;;-4.36;86.68;92707.25;5036913;28;20614;-73
2022/01/24 01:21:07;;;;;;;0.93;0.93;;;;;;;-4.69;85.58;92686.25;5037432;28;20208;-72
2022/01/24 01:23:37;;;;;;;1.17;1.17;;;;;;;-4.64;85.99;92711.78;5037821;28;20586;-72
2022/01/24 01:26:09;;;;;;;2.97;2.87;;;;;;;-4.82;86.92;92703.28;5037181;28;20226;-72
2022/01/24 01:28:39;;;;;;;1.67;1.67;;;;;;;-4.82;87.55;92699.19;5037760;28;20229;-72
2022/01/24 01:31:13;;;;;;;1.13;1.13;;;;;;;-4.97;88.94;92678.41;5036747;28;20571;-72
2022/01/24 01:33:52;;;;;;;2.30;2.10;;;;;;;-4.89;89.96;92686.72;5037913;28;20550;-72
2022/01/24 01:36:27;;;;;;;0.60;0.60;;;;;;;-4.86;90.48;92692.56;5037292;28;20465;-72
2022/01/24 01:52:56;;;;;;;1.03;1.03;;;;;;;-4.77;91.27;92690.22;5016491;28;20666;-72
2022/01/24 01:55:37;;;;;;;0.60;0.60;;;;;;;-4.83;91.98;92686.81;5017046;28;20551;-73
2022/01/24 01:58:04;;;;;;;0.77;0.77;;;;;;;-4.80;92.01;92686.88;5016792;28;20561;-72
2022/01/24 02:00:32;;;;;;;2.67;1.50;;;;;;;-4.85;91.92;92693.38;5017125;28;20622;-72
2022/01/24 02:02:59;;;;;;;1.23;1.23;;;;;;;-4.97;91.83;92695.66;5016720;28;20542;-73
2022/01/24 02:05:26;;;;;;;0.90;0.90;;;;;;;-4.95;92.47;92694.03;5017043;28;20556;-72
2022/01/24 02:07:55;;;;;;;1.00;1.00;;;;;;;-4.97;92.97;92694.03;5015452;28;20244;-72
2022/01/24 02:10:24;;;;;;;0.80;0.80;;;;;;;-4.93;93.36;92687.50;5016515;28;20597;-72
2022/01/24 02:12:55;;;;;;;1.07;1.07;;;;;;;-4.93;92.32;92678.47;5016462;28;20221;-72
2022/01/24 02:15:28;;;;;;;0.60;0.60;;;;;;;-4.79;91.88;92700.88;5015893;28;20474;-72
2022/01/24 02:18:05;;;;;;;0.97;0.97;;;;;;;-4.90;90.97;92699.88;5016608;28;20210;-72
2022/01/24 02:20:43;;;;;;;1.03;1.03;;;;;;;-4.84;90.72;92699.94;5016445;28;20578;-72
2022/01/24 02:23:35;;;;;;;1.23;1.23;;;;;;;-4.92;89.39;92718.72;5016117;28;20566;-72
2022/01/24 02:26:05;;;;;;;1.23;1.23;;;;;;;-4.96;88.65;92720.31;5016248;28;20639;-72
2022/01/24 02:28:45;;;;;;;0.67;0.67;;;;;;;-5.11;88.69;92697.88;5016546;28;20289;-72
2022/01/24 02:31:35;;;;;;;1.10;1.10;;;;;;;-5.02;88.69;92708.72;5016375;28;20573;-72
2022/01/24 02:34:02;;;;;;;0.73;0.73;;;;;;;-4.96;88.85;92717.03;5016309;28;20207;-72
2022/01/24 02:36:29;;;;;;;1.83;1.77;;;;;;;-4.99;89.23;92702.19;5015996;28;20299;-72
2022/01/24 02:39:07;;;;;;;0.67;0.67;;;;;;;-4.89;89.86;92722.03;5016985;28;20551;-72
2022/01/24 02:49:47;;;;;;;1.33;1.23;;;;;;;-4.86;89.29;92719.66;5017006;28;20478;-72
2022/01/24 02:52:15;;;;;;;2.57;1.03;;;;;;;-4.79;90.38;92710.72;5016346;28;20281;-72
2022/01/24 02:54:46;;;;;;;0.83;0.83;;;;;;;-4.72;89.30;92717.38;5016316;28;20609;-72
2022/01/24 02:57:13;;;;;;;0.70;0.70;;;;;;;-4.75;88.72;92717.34;5027741;28;20588;-72
2022/01/24 02:59:41;;;;;;;1.33;1.33;;;;;;;-4.71;89.22;92734.66;5016223;28;20555;-72
2022/01/24 03:02:08;;;;;;;1.27;1.27;;;;;;;-4.72;88.69;92732.16;5015826;28;20471;-72
2022/01/24 03:04:35;;;;;;;2.90;2.70;;;;;;;-4.69;89.32;92733.06;5016100;28;20631;-72
2022/01/24 03:07:02;;;;;;;0.77;0.77;;;;;;;-4.76;88.87;92725.53;5016081;28;20302;-72
2022/01/24 03:09:29;;;;;;;2.77;1.20;;;;;;;-4.73;89.81;92733.00;5016005;28;20471;-72
2022/01/24 03:12:03;;;;;;;0.90;0.90;;;;;;;-4.67;89.97;92740.44;5016034;28;20532;-72
2022/01/24 03:14:32;;;;;;;1.17;1.17;;;;;;;-4.67;89.83;92738.00;5015404;28;20626;-73
2022/01/24 03:17:00;;;;;;;1.07;1.07;;;;;;;-4.64;89.66;92753.66;5015885;28;20591;-72
2022/01/24 03:19:28;;;;;;;0.73;0.73;;;;;;;-4.75;90.03;92734.59;5027292;28;20556;-72
2022/01/24 03:21:55;;;;;;;1.03;1.03;;;;;;;-4.66;89.98;92742.94;5020388;28;20525;-72
2022/01/24 03:24:23;;;;;;;1.67;1.57;;;;;;;-4.69;90.21;92737.16;5019539;28;20601;-72
2022/01/24 03:26:50;;;;;;;0.80;0.80;;;;;;;-4.69;90.79;92737.16;5020019;28;20639;-72
2022/01/24 03:29:19;;;;;;;0.80;0.80;;;;;;;-4.66;89.50;92747.88;5019257;28;20601;-72
2022/01/24 03:31:46;;;;;;;1.77;1.70;;;;;;;-4.80;89.63;92721.38;5019420;28;20582;-72
2022/01/24 03:34:15;;;;;;;1.60;1.60;;;;;;;-4.74;90.03;92733.78;5020564;28;20549;-72
2022/01/24 03:36:43;;;;;;;1.07;1.07;;;;;;;-4.67;89.82;92745.38;5019922;28;20207;-72
2022/01/24 03:39:11;;;;;;;0.90;0.90;;;;;;;-4.63;89.09;92752.03;5019376;28;20273;-72
2022/01/24 03:41:39;;;;;;;2.63;1.77;;;;;;;-4.67;90.42;92753.59;5018884;28;20570;-72
2022/01/24 03:44:08;;;;;;;1.43;1.43;;;;;;;-4.85;91.17;92752.50;5019010;28;20633;-72
2022/01/24 03:47:00;;;;;;;1.30;1.30;;;;;;;-4.89;91.66;92755.69;5019507;28;20638;-72
2022/01/24 03:49:48;;;;;;;0.77;0.77;;;;;;;-5.12;92.83;92745.47;5019429;28;20578;-72
2022/01/24 03:52:15;;;;;;;0.83;0.83;;;;;;;-5.03;92.57;92755.50;5018657;28;20572;-72
2022/01/24 03:54:43;;;;;;;0.83;0.80;;;;;;;-5.01;91.32;92762.09;5019453;28;20600;-72
2022/01/24 03:57:12;;;;;;;0.90;0.90;;;;;;;-5.06;91.93;92773.50;5019300;28;20222;-72
2022/01/24 03:59:39;;;;;;;0.80;0.80;;;;;;;-4.95;90.96;92767.91;5018700;28;20667;-72
2022/01/24 04:02:09;;;;;;;1.63;1.63;;;;;;;-4.89;90.63;92768.00;5019275;28;20538;-72
2022/01/24 04:04:36;;;;;;;1.00;1.00;;;;;;;-4.79;91.11;92775.56;5019415;28;20603;-73
2022/01/24 04:07:04;;;;;;;1.27;1.27;;;;;;;-4.74;90.79;92775.69;5018532;28;20621;-72
2022/01/24 04:09:31;;;;;;;1.17;1.17;;;;;;;-4.72;90.00;92778.97;5027113;28;20555;-72
2022/01/24 04:11:59;;;;;;;1.40;1.40;;;;;;;-4.73;89.86;92780.59;5022098;28;20587;-72
2022/01/24 04:14:34;;;;;;;1.13;1.13;;;;;;;-4.84;90.75;92786.16;5019248;28;20490;-72
2022/01/24 04:17:20;;;;;;;1.40;1.40;;;;;;;-4.84;90.85;92771.38;5019171;28;20602;-72
2022/01/24 04:22:38;;;;;;;2.63;1.83;;;;;;;-4.75;89.82;92787.16;4988183;28;20263;-72
2022/01/24 04:25:13;;;;;;;1.10;1.10;;;;;;;-4.93;91.33;92783.56;5018686;28;20478;-72
2022/01/24 04:27:40;;;;;;;3.10;0.90;;;;;;;-4.92;91.29;92790.97;5018744;28;20555;-72
2022/01/24 04:30:09;;;;;;;1.80;0.90;;;;;;;-4.90;91.27;92786.88;5018461;28;20522;-72
2022/01/24 04:32:36;;;;;;;2.13;2.13;;;;;;;-4.84;91.42;92793.56;5017201;28;20575;-72
2022/01/24 04:35:06;;;;;;;1.70;1.70;;;;;;;-4.74;90.42;92797.84;5018734;28;20521;-72
2022/01/24 04:37:33;;;;;;;1.97;1.87;;;;;;;-4.78;90.10;92808.44;5018130;28;20194;-72
2022/01/24 04:40:00;;;;;;;2.33;2.23;;;;;;;-4.88;90.44;92795.16;5018950;28;20645;-72
2022/01/24 04:42:36;;;;;;;1.13;1.13;;;;;;;-4.75;90.14;92808.50;5017738;28;20595;-72
2022/01/24 04:50:47;;;;;;;1.33;1.33;;;;;;;-4.94;90.28;92823.75;5017355;28;20470;-72
2022/01/24 04:53:31;;;;;;;2.70;2.60;;;;;;;-5.01;90.03;92820.34;5018095;28;20607;-72
2022/01/24 04:55:58;;;;;;;1.20;1.20;;;;;;;-5.03;89.93;92826.91;5018056;28;20551;-72
2022/01/24 04:58:25;;;;;;;1.63;1.63;;;;;;;-5.11;89.96;92816.91;5018473;28;20603;-73
2022/01/24 05:00:52;;;;;;;1.23;1.23;;;;;;;-5.31;91.08;92822.28;5026838;28;20220;-72
2022/01/24 05:03:19;;;;;;;1.30;1.30;;;;;;;-5.43;91.63;92820.41;5018243;28;20650;-73
2022/01/24 05:05:49;;;;;;;1.13;1.13;;;;;;;-5.31;91.46;92828.03;5018663;28;20266;-73
2022/01/24 05:08:16;;;;;;;2.87;1.77;;;;;;;-5.43;92.32;92822.88;5017824;28;20568;-72
2022/01/24 05:10:55;;;;;;;1.10;1.00;;;;;;;-5.51;92.54;92829.25;5017204;28;20280;-72
2022/01/24 05:23:24;;;;;;;1.37;1.37;;;;;;;-5.16;90.86;92847.16;5018908;28;20549;-73
2022/01/24 05:24:27;;;;;;;3.63;3.43;;;;;;;-5.05;89.69;92850.66;5017031;28;20194;-73
2022/01/24 05:26:54;;;;;;;4.37;4.17;;;;;;;-5.13;90.34;92848.06;5030347;28;20479;-73
2022/01/24 05:29:21;;;;;;;3.50;3.30;;;;;;;-5.02;88.18;92861.41;5034683;28;20578;-74
2022/01/24 05:31:48;;;;;;;3.30;3.07;;;;;;;-4.85;86.39;92870.75;5031822;28;20568;-74
2022/01/24 05:34:16;;;;;;;1.60;1.50;;;;;;;-5.01;87.47;92855.66;5027733;28;20277;-73
2022/01/24 05:36:44;;;;;;;1.70;1.60;;;;;;;-4.77;85.22;92874.16;5022407;28;20614;-76
2022/01/24 05:39:11;;;;;;;2.80;2.63;;;;;;;-4.91;86.70;92854.22;5024501;28;20574;-73
2022/01/24 05:41:39;;;;;;;4.93;4.73;;;;;;;-5.21;88.01;92851.19;5015222;28;20277;-73
2022/01/24 05:44:06;;;;;;;4.70;4.40;;;;;;;-5.06;87.96;92862.16;5019148;28;21223;-72
2022/01/24 05:46:33;;;;;;;2.80;2.70;;;;;;;-5.26;88.46;92853.56;5016276;28;20224;-73
2022/01/24 05:49:01;;;;;;;1.67;1.67;;;;;;;-5.32;89.79;92865.75;5019479;28;20625;-74
2022/01/24 05:51:29;;;;;;;1.47;1.47;;;;;;;-5.43;90.29;92870.47;5022495;28;20705;-74
2022/01/24 05:54:03;;;;;;;2.23;2.13;;;;;;;-5.48;90.57;92872.00;5023014;28;20194;-74
2022/01/24 05:56:30;;;;;;;2.83;2.67;;;;;;;-5.32;89.92;92873.13;5027278;28;20597;-73
2022/01/24 05:58:57;;;;;;;3.33;3.13;;;;;;;-5.26;89.58;92875.72;5018325;28;20608;-73
2022/01/24 06:01:24;;;;;;;3.37;3.27;;;;;;;-5.09;88.75;92884.25;5025135;28;20626;-73
2022/01/24 06:03:52;;;;;;;3.07;2.87;;;;;;;-5.12;88.77;92883.34;5016003;28;20586;-72
2022/01/24 06:06:19;;;;;;;4.33;4.13;;;;;;;-4.99;88.78;92897.56;5015550;28;20582;-72
2022/01/24 06:08:46;;;;;;;3.83;3.53;;;;;;;-5.06;88.85;92903.19;5018772;28;20501;-73
2022/01/24 06:11:14;;;;;;;2.97;2.77;;;;;;;-4.99;87.74;92894.28;5016193;28;20470;-72
2022/01/24 06:13:43;;;;;;;3.47;3.37;;;;;;;-4.89;87.48;92918.28;5027401;28;20490;-71
2022/01/24 06:16:10;;;;;;;4.03;3.93;;;;;;;-4.92;85.16;92928.09;5025903;28;20230;-69
2022/01/24 06:18:38;;;;;;;2.17;2.07;;;;;;;-5.01;84.34;92922.16;5020682;28;20503;-73
2022/01/24 06:21:05;;;;;;;3.67;3.47;;;;;;;-4.97;84.23;92935.41;5018777;28;20447;-71
2022/01/24 06:23:33;;;;;;;1.53;1.53;;;;;;;-4.99;83.32;92941.06;5021414;28;20582;-72
2022/01/24 06:26:00;;;;;;;1.30;1.30;;;;;;;-5.08;85.04;92927.78;5018274;28;20241;-71
2022/01/24 06:28:28;;;;;;;2.23;2.23;;;;;;;-5.01;83.92;92941.88;5021783;28;20555;-71
2022/01/24 06:30:56;;;;;;;2.80;2.60;;;;;;;-4.99;81.58;92953.38;5019423;28;20544;-71
2022/01/24 06:33:23;;;;;;;2.97;2.87;;;;;;;-4.98;80.38;92960.81;5019038;28;20489;-72
2022/01/24 06:35:50;;;;;;;4.90;3.03;;;;;;;-4.97;79.61;92964.94;5017315;28;20205;-70
2022/01/24 06:38:17;;;;;;;2.87;2.77;;;;;;;-5.08;79.69;92969.66;5016671;28;20647;-72
2022/01/24 06:40:44;;;;;;;1.87;1.87;;;;;;;-5.06;78.64;92980.34;5018116;28;20472;-72
2022/01/24 06:43:11;;;;;;;5.53;4.13;;;;;;;-5.19;78.19;92970.22;5020294;28;20482;-73
2022/01/24 06:45:40;;;;;;;22.00;13.53;;;;;;;-5.23;77.86;92973.41;5018371;28;20526;-77
2022/01/24 06:48:07;;;;;;;32.57;11.40;;;;;;;-5.11;78.74;92979.44;5026171;28;20719;-72
2022/01/24 06:50:34;;;;;;;12.93;5.30;;;;;;;-5.03;78.18;92985.38;5017078;28;20499;-73
2022/01/24 06:53:02;;;;;;;6.30;5.77;;;;;;;-4.95;77.22;92994.50;5018171;28;20231;-72
2022/01/24 06:55:29;;;;;;;5.57;5.00;;;;;;;-4.93;75.81;93007.72;5019497;28;20506;-72
2022/01/24 06:57:56;;;;;;;15.87;8.60;;;;;;;-4.89;76.14;92993.00;5019952;28;20545;-73
2022/01/24 07:00:26;;;;;;;7.03;6.30;;;;;;;-4.88;76.04;92991.38;5023587;28;20486;-72
2022/01/24 07:02:56;;;;;;;1.80;1.80;;;;;;;-5.13;75.67;92981.06;5016100;28;20560;-72
2022/01/24 07:05:24;;;;;;;4.17;3.87;;;;;;;-5.01;76.18;92983.75;5022927;28;20372;-73
2022/01/24 07:07:51;;;;;;;4.17;3.97;;;;;;;-4.94;75.23;92993.72;5021470;28;20621;-73
2022/01/24 07:10:18;;;;;;;1.90;1.73;;;;;;;-4.94;74.84;92992.09;5020223;28;20589;-72
2022/01/24 07:12:47;;;;;;;1.30;1.30;;;;;;;-4.83;73.73;93005.47;5020301;28;20665;-72
2022/01/24 07:15:16;;;;;;;1.57;1.57;;;;;;;-4.69;74.16;93011.50;5021593;28;20548;-72
2022/01/24 07:18:02;;;;;;;1.33;1.33;;;;;;;-4.65;73.20;93014.84;5015821;28;20681;-72
2022/01/24 07:20:35;;;;;;;8.90;1.90;;;;;;;-4.46;72.08;93025.91;5026576;28;20505;-71
2022/01/24 07:23:02;;;;;;;1.83;1.83;;;;;;;-4.54;69.95;93040.53;5016393;28;20610;-72
2022/01/24 07:25:29;;;;;;;4.10;1.97;;;;;;;-4.61;70.46;93034.66;5017477;28;20557;-72
2022/01/24 07:27:56;;;;;;;1.57;1.57;;;;;;;-4.59;70.06;93047.03;5021795;28;20618;-75
2022/01/24 07:30:23;;;;;;;1.67;1.67;;;;;;;-4.61;70.03;93032.19;5025752;28;20193;-72
2022/01/24 07:32:51;;;;;;;1.10;1.10;;;;;;;-4.62;70.59;93023.13;5017354;28;20505;-73
2022/01/24 07:35:18;;;;;;;1.30;1.30;;;;;;;-4.54;71.77;93023.28;5015768;28;20201;-72
2022/01/24 07:37:47;;;;;;;1.53;1.53;;;;;;;-4.55;73.59;93016.69;5019604;28;20602;-71
2022/01/24 07:40:16;;;;;;;1.23;1.23;;;;;;;-4.84;74.84;92978.31;5014564;28;20478;-73
2022/01/24 07:42:55;;;;;;;1.33;1.33;;;;;;;-4.74;76.19;93010.59;5016341;28;20200;-74
2022/01/24 07:45:24;;;;;;;2.03;2.03;;;;;;;-4.83;76.96;93000.53;5025123;28;20638;-71
2022/01/24 07:47:51;;;;;;;1.80;1.80;;;;;;;-4.74;78.50;93009.75;5020355;28;20514;-74
2022/01/24 07:50:20;;;;;;;2.80;2.73;;;;;;;-4.90;79.53;93005.31;5024622;28;20588;-73
2022/01/24 07:52:49;;;;;;;1.40;1.40;;;;;;;-4.77;80.01;93014.59;5019671;28;20567;-72
2022/01/24 07:55:16;;;;;;;1.00;1.00;;;;;;;-4.79;80.20;93011.28;5018908;28;20621;-72
2022/01/24 07:57:43;;;;;;;1.80;1.80;;;;;;;-4.69;80.83;93018.91;5018019;28;20542;-72
2022/01/24 08:00:12;;;;;;;3.53;3.33;;;;;;;-4.64;80.51;93023.91;5020477;28;20610;-72
2022/01/24 08:02:40;;;;;;;2.40;1.97;;;;;;;-4.64;80.24;93016.53;5015308;28;20615;-72
2022/01/24 08:05:08;;;;;;;6.47;5.97;;;;;;;-4.56;81.04;93010.09;5015429;28;20566;-72
2022/01/24 08:07:36;;;;;;;9.30;8.07;;;;;;;-4.52;80.23;93025.78;5022641;28;20709;-72
2022/01/24 08:10:06;;;;;;;4.50;2.67;;;;;;;-4.45;78.43;93035.78;5017441;28;20202;-72
2022/01/24 08:12:34;;;;;;;4.33;4.13;;;;;;;-4.41;79.15;93030.13;5024259;28;20468;-72
2022/01/24 08:15:02;;;;;;;3.53;3.33;;;;;;;-4.38;79.14;93034.28;5017335;28;20530;-72
2022/01/24 08:17:30;;;;;;;6.53;2.30;;;;;;;-4.44;79.48;93039.91;5017480;28;20575;-71
2022/01/24 08:19:57;;;;;;;3.30;3.20;;;;;;;-4.50;79.96;93039.78;5020737;28;20574;-71
2022/01/24 08:22:25;;;;;;;2.37;2.27;;;;;;;-4.55;80.31;93041.34;5021409;28;20198;-71
2022/01/24 08:24:52;;;;;;;2.43;2.43;;;;;;;-4.56;80.33;93042.13;5024779;28;20634;-72
2022/01/24 08:27:22;;;;;;;3.17;3.07;;;;;;;-4.68;81.73;93039.44;5022302;28;20560;-71
2022/01/24 08:29:52;;;;;;;4.03;1.90;;;;;;;-4.61;81.98;93051.06;5021447;28;20557;-71
2022/01/24 08:32:19;;;;;;;5.63;5.20;;;;;;;-4.67;81.18;93050.94;5024772;28;20552;-74
2022/01/24 08:34:46;;;;;;;1.43;1.43;;;;;;;-4.65;80.37;93049.34;5017705;28;20482;-71
2022/01/24 08:37:14;;;;;;;2.77;2.77;;;;;;;-4.62;78.84;93066.69;5022089;28;20590;-72
2022/01/24 08:39:43;;;;;;;2.33;2.27;;;;;;;-4.62;78.70;93069.97;5019132;28;20567;-72
2022/01/24 08:42:16;;;;;;;1.73;1.73;;;;;;;-4.53;77.21;93078.34;5019953;28;20586;-71
2022/01/24 08:47:35;;;;;;;0.90;0.90;;;;;;;-4.40;76.68;93075.34;4997934;28;20719;-71
2022/01/24 08:50:04;;;;;;;4.47;4.27;;;;;;;-4.31;75.64;93076.34;5028391;28;20597;-71
2022/01/24 08:52:31;;;;;;;7.67;7.03;;;;;;;-4.32;74.15;93089.47;5019579;28;20647;-71
2022/01/24 08:54:58;;;;;;;6.67;6.20;;;;;;;-4.24;72.68;93107.72;5020107;28;20457;-72
2022/01/24 08:57:26;;;;;;;3.23;2.93;;;;;;;-4.08;72.14;93101.47;5019225;28;20628;-71
2022/01/24 08:59:55;;;;;;;4.10;3.80;;;;;;;-3.88;71.83;93102.66;5025774;28;20576;-70
2022/01/24 09:02:23;;;;;;;2.47;1.80;;;;;;;-3.76;69.90;93127.56;5025656;28;20570;-71
2022/01/24 09:04:51;;;;;;;4.13;3.90;;;;;;;-3.66;68.66;93125.28;5017662;28;20586;-70
2022/01/24 09:07:20;;;;;;;3.07;2.97;;;;;;;-3.72;68.83;93122.69;5020065;28;20636;-70
2022/01/24 09:09:47;;;;;;;1.93;1.83;;;;;;;-3.72;67.84;93130.09;5018916;28;20538;-72
2022/01/24 09:12:15;;;;;;;2.70;1.97;;;;;;;-3.77;65.76;93150.56;5023406;28;20583;-71
2022/01/24 09:14:45;;;;;;;0.60;0.60;;;;;;;-3.95;64.89;93144.47;5021682;28;20506;-71
2022/01/24 09:17:13;;;;;;;5.17;4.00;;;;;;;-4.06;66.62;93131.94;5016661;28;20617;-72
2022/01/24 09:19:40;;;;;;;3.50;3.30;;;;;;;-4.21;68.48;93102.00;5024227;28;20684;-72
2022/01/24 09:22:08;;;;;;;5.53;5.10;;;;;;;-4.15;69.10;93101.28;5024001;28;20591;-73
2022/01/24 09:24:35;;;;;;;5.40;5.10;;;;;;;-4.26;67.54;93118.34;5018944;28;20592;-71
2022/01/24 09:27:03;;;;;;;3.23;3.13;;;;;;;-4.51;67.75;93121.97;5019261;28;20613;-70
2022/01/24 09:29:30;;;;;;;4.43;4.27;;;;;;;-4.50;68.63;93111.28;5016909;28;20601;-72
2022/01/24 09:31:57;;;;;;;3.17;3.07;;;;;;;-4.28;69.12;93097.78;5018995;28;20551;-72
2022/01/24 09:34:26;;;;;;;6.73;4.97;;;;;;;-4.13;67.29;93098.06;5020933;28;20680;-72
2022/01/24 09:36:53;;;;;;;3.63;3.53;;;;;;;-3.95;65.33;93125.56;5018012;28;20641;-71
2022/01/24 09:39:21;;;;;;;5.97;5.47;;;;;;;-3.74;64.40;93139.09;5020694;28;20198;-71
2022/01/24 09:41:48;;;;;;;5.13;3.73;;;;;;;-3.59;63.72;93139.38;5019339;28;20208;-72
2022/01/24 09:44:15;;;;;;;5.83;5.40;;;;;;;-3.32;63.26;93137.38;5018409;28;20503;-71
2022/01/24 09:46:44;;;;;;;7.27;6.77;;;;;;;-3.09;62.96;93130.34;5016809;28;20593;-71
2022/01/24 09:49:11;;;;;;;4.70;3.10;;;;;;;-2.84;61.88;93134.88;5021640;28;20333;-71
2022/01/24 09:51:40;;;;;;;2.00;2.00;;;;;;;-2.63;60.70;93137.66;5021139;28;20250;-71
2022/01/24 09:54:09;;;;;;;4.40;4.03;;;;;;;-2.42;58.16;93158.59;5019223;28;20223;-71
2022/01/24 09:56:36;;;;;;;3.83;3.63;;;;;;;-2.64;56.10;93157.41;5019075;28;20209;-71
2022/01/24 09:59:03;;;;;;;6.07;4.03;;;;;;;-2.88;55.14;93166.94;5021878;28;20228;-71
2022/01/24 10:01:33;;;;;;;1.63;1.63;;;;;;;-3.24;55.41;93163.06;5018176;28;20637;-71
2022/01/24 10:04:16;;;;;;;1.83;1.77;;;;;;;-3.44;56.85;93133.09;5020758;28;20558;-71
2022/01/24 10:06:59;;;;;;;1.87;1.87;;;;;;;-3.41;58.49;93119.94;5026262;28;20208;-72
2022/01/24 10:09:35;;;;;;;4.27;4.07;;;;;;;-3.64;60.73;93097.34;5023321;28;20582;-71
2022/01/24 10:12:07;;;;;;;1.37;1.37;;;;;;;-3.52;61.33;93096.72;5025868;28;20615;-71
2022/01/24 10:17:24;;;;;;;3.97;2.93;;;;;;;-3.70;60.45;93103.78;5018515;28;20717;-72
2022/01/24 10:19:51;;;;;;;2.90;2.80;;;;;;;-3.54;59.35;93116.44;5018154;28;20621;-72
2022/01/24 10:22:24;;;;;;;3.17;2.97;;;;;;;-3.43;58.38;93121.56;5016324;28;20201;-72
2022/01/24 10:24:54;;;;;;;2.43;2.33;;;;;;;-3.55;57.19;93117.22;5019984;28;20602;-71
2022/01/24 10:27:24;;;;;;;3.27;2.90;;;;;;;-3.39;57.88;93126.59;5017658;28;20515;-70
2022/01/24 10:29:55;;;;;;;3.47;2.83;;;;;;;-3.36;61.46;93096.16;5020477;28;20249;-71
2022/01/24 10:32:38;;;;;;;6.97;4.33;;;;;;;-3.04;62.12;93094.19;5016925;28;20561;-71
2022/01/24 10:35:27;;;;;;;1.77;1.77;;;;;;;-3.15;62.37;93093.19;5019141;28;20556;-71
2022/01/24 10:38:20;;;;;;;1.27;1.27;;;;;;;-3.07;65.92;93071.91;5021632;28;20473;-71
2022/01/24 10:40:51;;;;;;;1.67;1.67;;;;;;;-3.12;66.46;93058.66;5025114;28;20595;-72
2022/01/24 10:43:23;;;;;;;3.17;2.90;;;;;;;-3.15;65.63;93075.91;5018741;28;20581;-71
2022/01/24 10:45:52;;;;;;;2.00;1.90;;;;;;;-3.41;65.37;93090.31;5016990;28;20281;-71
2022/01/24 10:48:26;;;;;;;1.77;1.77;;;;;;;-3.62;66.77;93071.03;5016999;28;20232;-72
2022/01/24 10:51:08;;;;;;;0.83;0.83;;;;;;;-3.69;67.08;93071.75;5017598;28;20491;-72
2022/01/24 10:53:39;;;;;;;1.57;1.53;;;;;;;-3.72;66.97;93075.81;5011680;28;20534;-73
2022/01/24 10:56:33;;;;;;;1.53;1.53;;;;;;;-3.64;66.33;93080.06;5017752;28;20560;-71
2022/01/24 10:59:22;;;;;;;1.90;1.60;;;;;;;-3.49;63.37;93106.63;5017080;28;20583;-72
2022/01/24 11:01:52;;;;;;;0.97;0.97;;;;;;;-3.39;62.86;93098.59;5016835;28;20295;-73
2022/01/24 11:04:21;;;;;;;0.97;0.97;;;;;;;-2.95;63.35;93086.94;5015144;28;20616;-71
2022/01/24 11:06:50;;;;;;;3.03;1.83;;;;;;;-2.79;62.17;93101.16;5017542;28;20592;-72
2022/01/24 11:09:22;;;;;;;1.30;1.30;;;;;;;-2.62;62.09;93106.34;5016287;28;20656;-71
2022/01/24 11:11:51;;;;;;;2.53;1.73;;;;;;;-2.85;63.45;93083.78;5013040;28;20592;-71
2022/01/24 11:14:20;;;;;;;1.03;1.03;;;;;;;-2.92;64.52;93089.44;5019158;28;20205;-72
2022/01/24 11:16:48;;;;;;;1.53;1.47;;;;;;;-3.26;65.84;93068.31;5019899;28;20281;-72
2022/01/24 11:19:22;;;;;;;1.00;1.00;;;;;;;-3.52;64.93;93076.97;5020639;28;20535;-72
2022/01/24 11:21:51;;;;;;;1.77;1.77;;;;;;;-3.67;67.25;93062.72;5021701;28;20555;-73
2022/01/24 11:24:26;;;;;;;1.87;1.87;;;;;;;-3.57;67.44;93063.72;5016768;28;20309;-74
2022/01/24 11:26:53;;;;;;;1.33;1.33;;;;;;;-3.36;65.93;93069.81;5015775;28;20226;-73
2022/01/24 11:29:21;;;;;;;1.70;1.70;;;;;;;-3.14;64.21;93084.97;5018136;28;20633;-73
2022/01/24 11:31:56;;;;;;;3.50;1.80;;;;;;;-3.20;62.76;93097.22;5017693;28;20200;-73
2022/01/24 11:34:34;;;;;;;1.20;1.20;;;;;;;-3.24;62.73;93095.53;5015067;28;20587;-72
2022/01/24 11:37:01;;;;;;;2.33;2.23;;;;;;;-3.28;62.78;93088.88;5017256;28;20685;-71
2022/01/24 11:39:30;;;;;;;2.57;2.47;;;;;;;-3.25;62.75;93091.38;5025824;28;20204;-72
2022/01/24 11:41:58;;;;;;;0.60;0.60;;;;;;;-3.25;62.63;93093.84;5026197;28;20478;-70
2022/01/24 11:44:27;;;;;;;1.00;1.00;;;;;;;-3.04;63.70;93086.78;5024994;28;20557;-72
2022/01/24 11:46:56;;;;;;;1.90;1.90;;;;;;;-2.79;63.56;93087.97;5025518;28;20597;-71
2022/01/24 11:49:29;;;;;;;1.30;1.30;;;;;;;-2.65;62.00;93094.78;5020963;28;20294;-71
2022/01/24 11:52:06;;;;;;;1.10;1.10;;;;;;;-2.51;60.68;93103.22;5026194;28;20611;-71
2022/01/24 11:54:49;;;;;;;1.60;1.50;;;;;;;-1.99;57.63;93127.81;5021575;28;20501;-69
2022/01/24 11:57:20;;;;;;;0.93;0.93;;;;;;;-1.93;56.66;93123.75;5021001;28;20580;-69
2022/01/24 11:59:48;;;;;;;2.27;2.13;;;;;;;-2.25;53.46;93153.03;5023967;28;20562;-71
2022/01/24 12:02:24;;;;;;;1.70;1.70;;;;;;;-2.46;54.52;93156.84;5019171;28;20604;-72
2022/01/24 12:05:02;;;;;;;1.07;1.07;;;;;;;-3.05;59.29;93109.84;5022213;28;20580;-71
2022/01/24 12:07:30;;;;;;;1.17;1.17;;;;;;;-3.35;62.23;93083.84;5022403;28;20541;-69
2022/01/24 12:10:41;;;;;;;1.10;1.10;;;;;;;-3.67;65.42;93066.84;5020603;28;20578;-70
2022/01/24 12:13:13;;;;;;;0.60;0.60;;;;;;;-3.63;66.64;93075.94;5022953;28;20550;-71
2022/01/24 12:16:06;;;;;;;1.77;1.77;;;;;;;-3.81;66.64;93074.00;5020971;28;20498;-71
2022/01/24 12:18:51;;;;;;;1.20;1.20;;;;;;;-3.92;64.81;93093.53;5017484;28;20451;-71
2022/01/24 12:21:23;;;;;;;1.17;1.17;;;;;;;-4.10;64.39;93095.66;5020446;28;20574;-71
2022/01/24 12:23:52;;;;;;;2.13;2.03;;;;;;;-4.25;65.31;93081.41;5020097;28;20227;-70
2022/01/24 12:26:27;;;;;;;2.20;1.53;;;;;;;-4.50;66.58;93061.16;5023091;28;20616;-70
2022/01/24 12:28:59;;;;;;;1.00;1.00;;;;;;;-4.49;65.70;93083.38;5016507;28;20696;-70
2022/01/24 12:31:33;;;;;;;3.13;2.47;;;;;;;-4.48;67.49;93077.66;5017104;28;20488;-71
2022/01/24 12:34:13;;;;;;;1.80;1.80;;;;;;;-4.30;68.21;93082.94;5023515;28;20577;-71
2022/01/24 12:37:04;;;;;;;0.60;0.60;;;;;;;-4.28;69.14;93063.25;5020840;28;20564;-70
2022/01/24 12:39:36;;;;;;;1.87;1.87;;;;;;;-4.22;69.49;93065.81;5015146;28;20509;-71
2022/01/24 12:42:13;;;;;;;1.90;1.80;;;;;;;-4.33;71.78;93060.69;5025177;28;20538;-70
2022/01/24 12:47:29;;;;;;;2.63;2.53;;;;;;;-4.32;71.33;93071.38;5021342;28;20218;-70
2022/01/24 12:49:57;;;;;;;1.37;1.30;;;;;;;-4.35;69.60;93088.59;5023870;28;20641;-70
2022/01/24 12:52:27;;;;;;;0.63;0.63;;;;;;;-4.36;70.02;93092.69;5021218;28;20495;-70
2022/01/24 12:54:57;;;;;;;1.33;1.33;;;;;;;-4.35;69.44;93091.88;5020557;28;20486;-71
2022/01/24 12:57:32;;;;;;;1.10;1.10;;;;;;;-4.16;70.85;93080.72;5019220;28;20256;-71